createdAt,value
2019-02-02T00:02:57.029Z,93.50
2019-02-02T00:08:12.815Z,93.80
2019-02-02T00:13:27.958Z,93.00
2019-02-02T00:18:43.023Z,93.50
2019-02-02T00:23:59.384Z,93.70
2019-02-02T00:29:17.880Z,94.00
2019-02-02T00:34:33.396Z,94.20
2019-02-02T00:39:48.333Z,94.20
2019-02-02T00:45:03.402Z,94.50
2019-02-02T00:50:19.718Z,94.00
2019-02-02T00:55:35.300Z,93.90
2019-02-02T01:00:50.546Z,94.00
2019-02-02T01:06:05.958Z,94.20
2019-02-02T01:11:23.190Z,94.40
2019-02-02T01:16:38.702Z,94.60
2019-02-02T01:21:54.096Z,94.40
2019-02-02T01:27:09.740Z,94.70
2019-02-02T01:32:24.651Z,94.10
2019-02-02T01:37:39.733Z,94.30
2019-02-02T01:42:55.463Z,94.40
2019-02-02T01:48:11.865Z,94.50
2019-02-02T01:53:27.772Z,94.70
2019-02-02T01:58:43.419Z,94.20
2019-02-02T02:03:58.542Z,94.20
2019-02-02T02:09:14.140Z,94.40
2019-02-02T02:14:29.875Z,93.80
2019-02-02T02:19:45.337Z,93.80
2019-02-02T02:25:00.358Z,94.00
2019-02-02T02:30:21.754Z,94.20
2019-02-02T02:35:37.274Z,94.30
2019-02-02T02:40:52.734Z,94.40
2019-02-02T02:46:08.113Z,94.50
2019-02-02T02:51:23.612Z,94.10
2019-02-02T02:56:40.352Z,94.40
2019-02-02T03:01:55.530Z,94.50
2019-02-02T03:07:11.038Z,94.60
2019-02-02T03:12:26.616Z,95.10
2019-02-02T03:17:42.264Z,94.50
2019-02-02T03:22:59.325Z,94.70
2019-02-02T03:28:14.609Z,94.50
2019-02-02T03:33:29.938Z,94.40
2019-02-02T03:38:45.566Z,94.70
2019-02-02T03:44:00.820Z,94.60
2019-02-02T03:49:16.150Z,94.70
2019-02-02T03:54:31.092Z,94.80
2019-02-02T03:59:46.224Z,94.90
2019-02-02T04:05:01.103Z,94.90
2019-02-02T04:10:16.681Z,95.10
2019-02-02T04:15:33.588Z,94.90
2019-02-02T04:20:49.563Z,94.90
2019-02-02T04:26:05.305Z,95.00
2019-02-02T04:31:20.684Z,94.80
2019-02-02T04:36:37.307Z,94.70
2019-02-02T04:41:52.722Z,94.90
2019-02-02T04:47:07.739Z,94.60
2019-02-02T04:52:22.871Z,94.80
2019-02-02T04:57:37.749Z,94.80
2019-02-02T05:02:53.643Z,94.90
2019-02-02T05:08:09.164Z,95.00
2019-02-02T05:13:24.660Z,95.00
2019-02-02T05:18:40.173Z,95.10
2019-02-02T05:23:55.564Z,95.20
2019-02-02T05:29:10.793Z,95.10
2019-02-02T05:34:26.518Z,95.10
2019-02-02T05:39:42.170Z,95.20
2019-02-02T05:44:57.384Z,95.20
2019-02-02T05:50:15.023Z,95.30
2019-02-02T05:55:30.238Z,95.40
2019-02-02T06:00:51.110Z,95.40
2019-02-02T06:06:06.997Z,95.00
2019-02-02T06:11:22.541Z,94.90
2019-02-02T06:16:37.568Z,95.10
2019-02-02T06:21:52.968Z,95.10
2019-02-02T06:27:10.536Z,95.10
2019-02-02T06:32:25.642Z,94.90
2019-02-02T06:37:41.021Z,94.60
2019-02-02T06:42:55.998Z,94.30
2019-02-02T06:48:11.333Z,94.10
2019-02-02T06:53:27.805Z,93.80
2019-02-02T06:58:42.968Z,93.60
2019-02-02T07:03:58.451Z,93.40
2019-02-02T07:09:16.898Z,93.50
2019-02-02T07:14:31.825Z,93.20
2019-02-02T07:19:47.262Z,93.00
2019-02-02T07:25:02.151Z,92.90
2019-02-02T07:30:28.277Z,92.90
2019-02-02T07:35:36.621Z,92.70
2019-02-02T07:40:52.010Z,92.60
2019-02-02T07:46:14.710Z,92.50
2019-02-02T07:51:25.487Z,92.40
2019-02-02T07:56:40.362Z,92.30
2019-02-02T08:01:55.816Z,92.20
2019-02-02T08:07:12.159Z,92.10
2019-02-02T08:12:27.614Z,92.00
2019-02-02T08:17:42.884Z,92.00
2019-02-02T08:22:59.690Z,91.90
2019-02-02T08:28:14.821Z,91.80
2019-02-02T08:33:29.981Z,91.70
2019-02-02T08:38:44.897Z,91.60
2019-02-02T08:44:00.264Z,91.50
2019-02-02T08:49:15.925Z,91.60
2019-02-02T08:54:35.127Z,91.50
2019-02-02T08:59:50.725Z,91.40
2019-02-02T09:05:07.493Z,91.40
2019-02-02T09:10:25.290Z,91.40
2019-02-02T09:15:40.537Z,91.40
2019-02-02T09:20:55.459Z,91.50
2019-02-02T09:26:10.829Z,91.50
2019-02-02T09:31:26.208Z,91.50
2019-02-02T09:36:41.456Z,91.50
2019-02-02T09:41:56.791Z,91.20
2019-02-02T09:47:11.673Z,91.10
2019-02-02T09:52:27.124Z,90.90
2019-02-02T09:57:42.886Z,90.80
2019-02-02T10:02:59.861Z,90.70
2019-02-02T10:08:14.806Z,90.60
2019-02-02T10:13:30.317Z,90.60
2019-02-02T10:18:45.574Z,90.40
2019-02-02T10:24:01.220Z,90.40
2019-02-02T10:29:20.908Z,90.30
2019-02-02T10:34:37.073Z,90.10
2019-02-02T10:39:52.520Z,90.00
2019-02-02T10:45:09.910Z,89.90
2019-02-02T10:50:25.483Z,90.10
2019-02-02T10:55:40.690Z,90.10
2019-02-02T11:00:56.124Z,89.30
2019-02-02T11:06:11.644Z,89.00
2019-02-02T11:11:26.629Z,88.60
2019-02-02T11:16:42.197Z,88.80
2019-02-02T11:21:57.624Z,88.70
2019-02-02T11:27:14.676Z,88.20
2019-02-02T11:32:29.973Z,88.10
2019-02-02T11:37:45.061Z,87.90
2019-02-02T11:43:00.671Z,87.70
2019-02-02T11:48:16.052Z,87.70
2019-02-02T11:53:31.446Z,87.30
2019-02-02T11:58:46.804Z,87.20
2019-02-02T12:04:01.843Z,87.10
2019-02-02T12:09:17.618Z,86.90
2019-02-02T12:14:32.783Z,84.60
2019-02-02T12:19:48.023Z,84.90
2019-02-02T12:25:03.645Z,84.90
2019-02-02T12:30:25.334Z,84.80
2019-02-02T12:35:41.365Z,84.80
2019-02-02T12:40:59.550Z,82.10
2019-02-02T12:46:13.569Z,82.90
2019-02-02T12:51:28.546Z,83.30
2019-02-02T12:56:43.871Z,83.50
2019-02-02T13:01:59.138Z,83.60
2019-02-02T13:07:14.786Z,83.50
2019-02-02T13:12:30.205Z,83.50
2019-02-02T13:17:45.348Z,83.50
2019-02-02T13:23:00.255Z,83.40
2019-02-02T13:28:16.607Z,83.40
2019-02-02T13:33:31.856Z,83.40
2019-02-02T13:38:47.171Z,83.30
2019-02-02T13:44:02.734Z,83.40
2019-02-02T13:49:18.820Z,83.30
2019-02-02T13:54:33.973Z,79.50
2019-02-02T13:59:49.428Z,80.40
2019-02-02T14:05:06.507Z,79.80
2019-02-02T14:10:27.575Z,78.80
2019-02-02T14:15:42.887Z,76.40
2019-02-02T14:20:58.564Z,75.40
2019-02-02T14:26:14.070Z,72.10
2019-02-02T14:31:30.274Z,73.30
2019-02-02T14:36:46.572Z,74.00
2019-02-02T14:42:02.099Z,74.50
2019-02-02T14:47:17.654Z,74.80
2019-02-02T14:52:32.965Z,74.90
2019-02-02T14:57:48.456Z,74.80
2019-02-02T15:03:04.273Z,74.80
2019-02-02T15:08:19.767Z,74.80
2019-02-02T15:13:35.067Z,75.00
2019-02-02T15:18:50.224Z,74.90
2019-02-02T15:24:06.016Z,74.90
2019-02-02T15:29:21.479Z,74.90
2019-02-02T15:34:36.673Z,71.30
2019-02-02T15:39:52.032Z,72.40
2019-02-02T15:45:09.381Z,72.80
2019-02-02T15:50:25.611Z,73.10
2019-02-02T15:55:40.934Z,73.40
2019-02-02T16:00:56.461Z,73.50
2019-02-02T16:06:11.733Z,73.40
2019-02-02T16:11:26.766Z,73.70
2019-02-02T16:16:43.232Z,73.80
2019-02-02T16:21:59.567Z,73.90
2019-02-02T16:27:15.240Z,73.90
2019-02-02T16:32:30.974Z,74.00
2019-02-02T16:37:46.273Z,72.80
2019-02-02T16:43:01.380Z,73.40
2019-02-02T16:48:18.180Z,73.10
2019-02-02T16:53:35.762Z,73.30
2019-02-02T16:58:51.404Z,73.40
2019-02-02T17:04:15.410Z,72.10
2019-02-02T17:09:23.814Z,72.60
2019-02-02T17:14:39.361Z,72.80
2019-02-02T17:19:54.982Z,72.90
2019-02-02T17:25:14.038Z,72.90
2019-02-02T17:30:29.491Z,72.70
2019-02-02T17:35:46.058Z,72.90
2019-02-02T17:41:02.747Z,73.00
2019-02-02T17:46:18.034Z,73.10
2019-02-02T17:51:33.326Z,73.20
2019-02-02T17:56:49.027Z,73.30
2019-02-02T18:02:05.451Z,73.40
2019-02-02T18:07:20.927Z,73.40
2019-02-02T18:12:36.444Z,73.30
2019-02-02T18:17:51.930Z,73.50
2019-02-02T18:23:07.815Z,74.00
2019-02-02T18:28:23.613Z,74.30
2019-02-02T18:33:42.050Z,74.50
2019-02-02T18:38:58.640Z,74.70
2019-02-02T18:44:14.697Z,74.90
2019-02-02T18:49:29.927Z,73.10
2019-02-02T18:54:45.102Z,73.80
2019-02-02T19:00:00.292Z,74.00
2019-02-02T19:05:17.288Z,73.80
2019-02-02T19:10:34.966Z,73.70
2019-02-02T19:15:50.083Z,73.20
2019-02-02T19:21:05.601Z,73.30
2019-02-02T19:26:21.042Z,73.50
2019-02-02T19:31:36.360Z,73.50
2019-02-02T19:36:52.249Z,73.50
2019-02-02T19:42:07.813Z,72.30
2019-02-02T19:47:23.364Z,72.90
2019-02-02T19:52:40.499Z,71.40
2019-02-02T19:57:55.961Z,72.10
2019-02-02T20:03:11.129Z,72.60
2019-02-02T20:08:26.357Z,73.10
2019-02-02T20:13:41.870Z,73.50
2019-02-02T20:18:57.080Z,73.20
2019-02-02T20:24:12.862Z,73.90
2019-02-02T20:29:28.359Z,73.50
2019-02-02T20:34:43.534Z,73.60
2019-02-02T20:39:59.000Z,74.10
2019-02-02T20:45:23.931Z,74.30
2019-02-02T20:50:39.215Z,74.80
2019-02-02T20:55:54.484Z,75.00
2019-02-02T21:01:10.156Z,75.20
2019-02-02T21:06:26.326Z,75.60
2019-02-02T21:11:41.697Z,75.70
2019-02-02T21:16:57.232Z,76.00
2019-02-02T21:22:12.914Z,75.90
2019-02-02T21:27:28.466Z,76.90
2019-02-02T21:32:43.982Z,75.90
2019-02-02T21:37:59.481Z,76.20
2019-02-02T21:43:15.911Z,76.30
2019-02-02T21:48:31.339Z,76.50
2019-02-02T21:53:47.225Z,76.20
2019-02-02T21:59:02.864Z,76.20
2019-02-02T22:04:18.502Z,76.30
2019-02-02T22:09:33.487Z,76.60
2019-02-02T22:14:48.841Z,76.70
2019-02-02T22:20:04.602Z,76.80
2019-02-02T22:25:27.214Z,76.80
2019-02-02T22:30:42.875Z,76.90
2019-02-02T22:35:58.965Z,77.20
2019-02-02T22:41:14.530Z,77.20
2019-02-02T22:46:30.462Z,78.10
2019-02-02T22:51:46.222Z,77.30
2019-02-02T22:57:01.637Z,77.40
2019-02-02T23:02:21.499Z,77.70
2019-02-02T23:08:57.936Z,78.00
2019-02-02T23:15:05.604Z,78.20
2019-02-02T23:20:23.276Z,78.20
2019-02-02T23:25:42.364Z,78.30
2019-02-02T23:30:59.328Z,78.50
2019-02-02T23:36:14.869Z,78.60
2019-02-02T23:41:30.596Z,78.70
2019-02-02T23:46:46.095Z,78.80
2019-02-02T23:52:02.101Z,78.80
2019-02-02T23:57:17.821Z,79.00
